Pagina principale
METAR-TAF:

METAR-TAF

Aeroporti :

Rundu, Namibia

latitudine: 17-57-20S, longitudine: 019-43-25E, altezza: 1106 m

Osservazione

Il bollettino è stato emesso 53 minuti fa, alle 19:00 UTC
Vento 3 kt da nord-ovest
Temperature 23°C
Umidità 83%
Pressione 1017 hPa

METAR: FYRU 161900Z AUTO 31003KT //// // ////// 23/20 Q1017

Ora: 21:53 (19:53 UTC)

Previsione

Il bollettino è stato emesso 2 ore e 53 minuti fa, alle 17:00 UTC
Previsione valida dal 16 alle 18 UTC al 17 alle 03 UTC
Vento 5 kt da nord-ovest
Visibilità: 9000 m
Nubi sparse ad un'altezza di 3500 ft, Cumulonembo.
temporale, pioggia
Evoluzione graduale
dal 16 alle 22 UTC al 17 alle 00 UTC
Vento kt da nord
Poco nuvoloso ad un'altezza di 3000 ft, Cumulonembo.
rovesci di pioggia

TAF: FYRU 161700Z 1618/1703 31005KT 9000 TSRA SCT035CB BECMG 1622/1700 00000KT -SHRA FEW030CB

Osservazioni e previsioni meteorologiche di più di 4000 aeroporti (messaggi METAR e TAF).

Le stazioni disponibili sono rappresentate dai dischi gialli e rossi sulla carta.

Puntare il mouse per vedere il nome della stazione.

Clicca sopra per visualizzare le osservazioni e previsioni meteorologiche.

Per cambiare la mappa : fare clic sui pulsanti verdi con una croce nera per ingrandire, il pulsante verde con un trattino per diminuire, o sulla freccia verde per le mappe adiacenti.


METAR-TAF: